Time;durP1;ratioP1;P1;durP2;ratioP2;P2;SDS_P1;SDS_P2;PMS_P1;PMS_P2;Temp;Humidity;BMP_temperature;BMP_pressure;BME280_temperature;BME280_humidity;BME280_pressure;Samples;Min_cycle;Max_cycle;Signal;HPM_P1;HPM_P2
2023/08/30 00:00:21;;;;;;;2.97;2.55;;;15.50;99.90;;;;;;5053575;28;20025;-43
2023/08/30 00:02:47;;;;;;;3.80;2.60;;;15.50;99.90;;;;;;5052882;28;20025;-46
2023/08/30 00:05:14;;;;;;;7.22;3.50;;;15.50;99.90;;;;;;5054481;28;20362;-43
2023/08/30 00:07:39;;;;;;;4.30;2.53;;;15.50;99.90;;;;;;5054417;28;20465;-46
2023/08/30 00:10:07;;;;;;;3.42;2.40;;;15.50;99.90;;;;;;5052021;28;20021;-47
2023/08/30 00:12:33;;;;;;;2.67;2.45;;;15.50;99.90;;;;;;5053287;28;20021;-41
2023/08/30 00:14:59;;;;;;;5.40;2.95;;;15.50;99.90;;;;;;5054240;28;20075;-41
2023/08/30 00:17:24;;;;;;;5.43;3.05;;;15.50;99.90;;;;;;5053055;28;20469;-41
2023/08/30 00:19:52;;;;;;;5.53;3.20;;;15.50;99.90;;;;;;5053266;28;20477;-44
2023/08/30 00:22:18;;;;;;;;;;;15.50;99.90;;;;;;5051968;28;20447;-41
2023/08/30 00:24:45;;;;;;;3.92;3.17;;;15.60;99.90;;;;;;5052211;28;20004;-44
2023/08/30 00:27:11;;;;;;;4.63;2.95;;;15.60;99.90;;;;;;5052596;28;20021;-44
2023/08/30 00:29:37;;;;;;;4.82;3.05;;;15.60;99.90;;;;;;5054024;28;20052;-43
2023/08/30 00:32:03;;;;;;;5.68;3.55;;;15.60;99.90;;;;;;5053229;28;20025;-46
2023/08/30 00:34:29;;;;;;;4.18;3.05;;;15.60;99.90;;;;;;5053281;28;20029;-42
2023/08/30 00:36:54;;;;;;;5.82;3.15;;;15.60;99.90;;;;;;5053880;28;20021;-42
2023/08/30 00:39:20;;;;;;;4.68;3.20;;;15.60;99.90;;;;;;5053750;28;20028;-44
2023/08/30 00:41:46;;;;;;;6.45;3.65;;;15.60;99.90;;;;;;5052439;28;20029;-41
2023/08/30 00:44:11;;;;;;;4.35;3.17;;;15.70;99.90;;;;;;5051618;28;20039;-41
2023/08/30 00:46:37;;;;;;;5.43;3.33;;;15.70;99.90;;;;;;5052075;28;20029;-45
2023/08/30 00:49:04;;;;;;;7.82;3.70;;;15.70;99.90;;;;;;5048990;28;20499;-42
2023/08/30 00:51:30;;;;;;;5.82;3.90;;;15.70;99.90;;;;;;5051385;28;20021;-45
2023/08/30 00:53:56;;;;;;;4.13;2.97;;;15.70;99.90;;;;;;5053443;28;20064;-40
2023/08/30 00:56:22;;;;;;;4.97;3.40;;;15.70;99.90;;;;;;5053337;28;20040;-42
2023/08/30 00:58:49;;;;;;;4.80;3.25;;;15.70;99.90;;;;;;5034410;28;20033;-47
2023/08/30 01:01:17;;;;;;;5.60;3.70;;;15.70;99.90;;;;;;5050153;28;20070;-43
2023/08/30 01:03:42;;;;;;;10.27;3.78;;;15.70;99.90;;;;;;5033595;28;20564;-43
2023/08/30 01:06:08;;;;;;;7.13;4.03;;;15.80;99.90;;;;;;5051710;28;20109;-48
2023/08/30 01:08:36;;;;;;;5.88;3.50;;;15.80;99.90;;;;;;5050463;28;20036;-43
2023/08/30 01:11:04;;;;;;;;;;;15.80;99.90;;;;;;5053555;28;20028;-45
2023/08/30 01:13:33;;;;;;;9.02;3.67;;;15.80;99.90;;;;;;5051913;28;19908;-48
2023/08/30 01:16:00;;;;;;;4.30;3.45;;;15.80;99.90;;;;;;5053050;28;20032;-43
2023/08/30 01:18:29;;;;;;;8.73;3.60;;;15.80;99.90;;;;;;5034437;28;20021;-45
2023/08/30 01:20:55;;;;;;;5.90;3.72;;;15.80;99.90;;;;;;5035175;28;20029;-43
2023/08/30 01:23:40;;;;;;;6.85;4.13;;;15.80;99.90;;;;;;5053005;28;20500;-47
2023/08/30 01:26:11;;;;;;;6.53;3.70;;;15.80;99.90;;;;;;5053090;28;20040;-42
2023/08/30 01:28:39;;;;;;;5.13;3.30;;;15.80;99.90;;;;;;5034647;28;20051;-46
2023/08/30 01:31:08;;;;;;;6.13;3.88;;;15.80;99.90;;;;;;5053178;28;20381;-42
2023/08/30 01:33:36;;;;;;;10.38;3.70;;;15.80;99.90;;;;;;5052376;28;20400;-40
2023/08/30 01:36:03;;;;;;;6.45;3.63;;;15.80;99.90;;;;;;5052016;28;20067;-43
2023/08/30 01:38:31;;;;;;;4.80;3.90;;;15.80;99.90;;;;;;5052806;28;20370;-42
2023/08/30 01:40:59;;;;;;;7.15;3.38;;;15.80;99.90;;;;;;5052366;28;20021;-44
2023/08/30 01:43:28;;;;;;;7.55;4.00;;;15.80;99.90;;;;;;5051561;28;20024;-45
2023/08/30 01:45:56;;;;;;;6.63;4.20;;;15.80;99.90;;;;;;5050910;28;20757;-42
2023/08/30 01:48:22;;;;;;;;;;;15.80;99.90;;;;;;5052836;28;20104;-48
2023/08/30 01:50:48;;;;;;;4.57;3.42;;;15.80;99.90;;;;;;5051940;28;19909;-53
2023/08/30 01:53:15;;;;;;;5.22;3.58;;;15.90;99.90;;;;;;5051597;28;20021;-43
2023/08/30 01:55:42;;;;;;;5.93;3.67;;;15.80;99.90;;;;;;5052591;28;20029;-41
2023/08/30 01:58:08;;;;;;;6.65;4.60;;;15.80;99.90;;;;;;5051394;28;20021;-44
2023/08/30 02:00:35;;;;;;;5.40;3.75;;;15.80;99.90;;;;;;5052909;28;20487;-47
2023/08/30 02:03:16;;;;;;;8.52;4.63;;;15.80;99.90;;;;;;5051947;28;20369;-43
2023/08/30 02:06:09;;;;;;;12.60;4.05;;;15.80;99.90;;;;;;5052619;28;20424;-41
2023/08/30 02:09:01;;;;;;;7.72;4.20;;;15.70;99.90;;;;;;5049534;28;20039;-41
2023/08/30 02:11:29;;;;;;;6.63;3.42;;;15.70;99.90;;;;;;5051388;28;20043;-42
2023/08/30 02:13:58;;;;;;;5.55;3.90;;;15.70;99.90;;;;;;5051971;28;20047;-40
2023/08/30 02:16:26;;;;;;;5.88;3.65;;;15.70;99.90;;;;;;5052609;28;20086;-42
2023/08/30 02:18:52;;;;;;;7.75;4.30;;;15.70;99.90;;;;;;5033807;28;20099;-41
2023/08/30 02:21:18;;;;;;;7.97;4.25;;;15.70;99.90;;;;;;5051528;28;20108;-43
2023/08/30 02:23:48;;;;;;;7.25;4.32;;;15.70;99.90;;;;;;5051671;28;20037;-46
2023/08/30 02:26:14;;;;;;;5.45;3.92;;;15.60;99.90;;;;;;5049816;28;20032;-42
2023/08/30 02:28:40;;;;;;;8.40;4.47;;;15.60;99.90;;;;;;5049320;28;20098;-42
2023/08/30 02:31:05;;;;;;;5.50;4.40;;;15.50;99.90;;;;;;5051008;28;20040;-40
2023/08/30 02:33:31;;;;;;;8.02;4.20;;;15.50;99.90;;;;;;5051856;28;20397;-40
2023/08/30 02:35:56;;;;;;;7.22;4.32;;;15.50;99.90;;;;;;5049418;28;20029;-44
2023/08/30 02:38:22;;;;;;;10.32;5.10;;;15.50;99.90;;;;;;5052183;28;20021;-41
2023/08/30 02:40:48;;;;;;;7.20;4.50;;;15.50;99.90;;;;;;5051627;28;20028;-42
2023/08/30 02:43:14;;;;;;;19.65;4.93;;;15.50;99.90;;;;;;5050990;28;20040;-42
2023/08/30 02:45:40;;;;;;;8.18;4.70;;;15.40;99.90;;;;;;5052402;28;20079;-45
2023/08/30 02:48:06;;;;;;;9.40;5.35;;;15.50;99.90;;;;;;5054985;28;20025;-44
2023/08/30 02:50:31;;;;;;;8.73;4.70;;;15.50;99.90;;;;;;5056044;28;20087;-43
2023/08/30 02:52:57;;;;;;;11.77;5.07;;;15.50;99.90;;;;;;5055973;28;20444;-43
2023/08/30 02:55:23;;;;;;;7.75;4.25;;;15.50;99.90;;;;;;5055134;28;20423;-42
2023/08/30 02:57:48;;;;;;;9.23;5.18;;;15.50;99.90;;;;;;5055751;28;20029;-43
2023/08/30 03:00:15;;;;;;;8.02;4.38;;;15.40;99.90;;;;;;5036389;28;20037;-44
2023/08/30 03:02:40;;;;;;;10.05;4.53;;;15.40;99.90;;;;;;5055551;28;20033;-43
2023/08/30 03:05:06;;;;;;;12.77;4.88;;;15.40;99.90;;;;;;5054122;28;20032;-48
2023/08/30 03:07:32;;;;;;;9.15;5.25;;;15.40;99.90;;;;;;5054332;28;20037;-54
2023/08/30 03:09:58;;;;;;;8.77;4.82;;;15.40;99.90;;;;;;5055435;28;20040;-45
2023/08/30 03:12:23;;;;;;;7.78;4.18;;;15.30;99.90;;;;;;5055430;28;20025;-43
2023/08/30 03:14:49;;;;;;;10.98;5.65;;;15.40;99.90;;;;;;5055116;28;20032;-44
2023/08/30 03:17:15;;;;;;;7.78;4.65;;;15.30;99.90;;;;;;5055235;28;20025;-44
2023/08/30 03:19:40;;;;;;;8.38;4.80;;;15.30;99.90;;;;;;5054821;28;20029;-52
2023/08/30 03:22:06;;;;;;;8.43;4.40;;;15.20;99.90;;;;;;5055526;28;20036;-53
2023/08/30 03:24:32;;;;;;;9.30;4.88;;;15.20;99.90;;;;;;5054138;28;20523;-40
2023/08/30 03:26:58;;;;;;;7.93;4.95;;;15.20;99.90;;;;;;5055270;28;20032;-47
2023/08/30 03:29:23;;;;;;;7.88;4.72;;;15.20;99.90;;;;;;5054120;28;20536;-46
2023/08/30 03:31:49;;;;;;;9.15;4.82;;;15.10;99.90;;;;;;5055129;28;20031;-41
2023/08/30 03:34:14;;;;;;;8.32;5.03;;;15.10;99.90;;;;;;5052383;28;20491;-46
2023/08/30 03:36:43;;;;;;;8.45;4.65;;;15.10;99.90;;;;;;5055077;28;20385;-41
2023/08/30 03:39:09;;;;;;;6.13;3.83;;;15.10;99.90;;;;;;5053735;28;20021;-47
2023/08/30 03:41:35;;;;;;;11.85;5.07;;;15.00;99.90;;;;;;5054885;28;20051;-43
2023/08/30 03:44:00;;;;;;;7.25;4.45;;;15.10;99.90;;;;;;5035248;28;20472;-43
2023/08/30 03:46:26;;;;;;;10.85;4.70;;;15.10;99.90;;;;;;5053572;28;20508;-43
2023/08/30 03:48:52;;;;;;;13.52;5.53;;;15.10;99.90;;;;;;5054145;28;20473;-42
2023/08/30 03:51:18;;;;;;;7.72;4.78;;;15.00;99.90;;;;;;5054619;28;20043;-45
2023/08/30 03:53:43;;;;;;;10.10;5.10;;;15.10;99.90;;;;;;5054663;28;20104;-44
2023/08/30 03:56:09;;;;;;;8.93;4.75;;;15.10;99.90;;;;;;5052111;28;20074;-43
2023/08/30 03:58:35;;;;;;;8.20;4.75;;;15.00;99.90;;;;;;5054854;28;20021;-44
2023/08/30 04:01:00;;;;;;;11.35;5.22;;;15.00;99.90;;;;;;5052535;28;20524;-47
2023/08/30 04:03:26;;;;;;;8.55;5.13;;;15.00;99.90;;;;;;5053298;28;20114;-42
2023/08/30 04:05:59;;;;;;;7.43;4.57;;;15.00;99.90;;;;;;5053231;28;20029;-42
2023/08/30 04:08:24;;;;;;;6.93;4.30;;;15.00;99.90;;;;;;5054244;28;20029;-42
2023/08/30 04:10:53;;;;;;;7.00;4.15;;;15.00;99.90;;;;;;5034297;28;20028;-45
2023/08/30 04:13:18;;;;;;;10.95;4.45;;;15.00;99.90;;;;;;5053845;28;20024;-50
2023/08/30 04:15:44;;;;;;;9.40;4.72;;;15.00;99.90;;;;;;5052394;28;20029;-55
2023/08/30 04:18:10;;;;;;;11.45;5.40;;;14.90;99.90;;;;;;5036540;28;20025;-52
2023/08/30 04:20:35;;;;;;;9.13;5.15;;;14.90;99.90;;;;;;5050905;28;20083;-43
2023/08/30 04:23:02;;;;;;;7.85;5.10;;;14.90;99.90;;;;;;5053537;28;20025;-41
2023/08/30 04:25:28;;;;;;;13.40;5.35;;;14.90;99.90;;;;;;5034500;28;20063;-42
2023/08/30 04:27:54;;;;;;;7.13;4.45;;;14.90;99.90;;;;;;5051208;28;20021;-44
2023/08/30 04:30:20;;;;;;;8.63;5.25;;;14.90;99.90;;;;;;5051889;28;20568;-47
2023/08/30 04:32:45;;;;;;;7.50;5.15;;;14.90;99.90;;;;;;5053310;28;20108;-49
2023/08/30 04:35:11;;;;;;;9.63;5.32;;;14.90;99.90;;;;;;5051522;28;20033;-41
2023/08/30 04:37:39;;;;;;;11.27;5.45;;;14.80;99.90;;;;;;5052983;28;20021;-42
2023/08/30 04:40:08;;;;;;;11.05;6.05;;;14.80;99.90;;;;;;5052919;28;20441;-45
2023/08/30 04:42:35;;;;;;;11.60;5.43;;;14.80;99.90;;;;;;5053179;28;20520;-47
2023/08/30 04:45:02;;;;;;;8.77;5.00;;;14.80;99.90;;;;;;5052237;28;20033;-43
2023/08/30 04:47:29;;;;;;;16.92;5.70;;;14.70;99.90;;;;;;5050650;28;20494;-43
2023/08/30 04:49:54;;;;;;;8.93;4.95;;;14.60;99.90;;;;;;5052026;28;20025;-40
2023/08/30 04:52:20;;;;;;;10.23;5.53;;;14.60;99.90;;;;;;5053414;28;20021;-42
2023/08/30 04:54:46;;;;;;;10.52;5.78;;;14.50;99.90;;;;;;5052224;28;20032;-43
2023/08/30 04:57:14;;;;;;;8.55;5.15;;;14.50;99.90;;;;;;5053469;28;20021;-40
2023/08/30 04:59:43;;;;;;;10.05;5.25;;;14.50;99.90;;;;;;5052294;28;20040;-43
2023/08/30 05:02:09;;;;;;;12.52;5.57;;;14.40;99.90;;;;;;5053202;28;20096;-42
2023/08/30 05:04:35;;;;;;;9.50;5.55;;;14.40;99.90;;;;;;5052993;28;20037;-40
2023/08/30 05:07:01;;;;;;;8.85;5.85;;;14.40;99.90;;;;;;5051844;28;20478;-42
2023/08/30 05:09:26;;;;;;;9.93;5.65;;;14.40;99.90;;;;;;5053029;28;20036;-42
2023/08/30 05:11:53;;;;;;;9.70;5.28;;;14.30;99.90;;;;;;5053187;28;20029;-42
2023/08/30 05:14:20;;;;;;;11.65;5.30;;;14.30;99.90;;;;;;5051836;28;20108;-44
2023/08/30 05:16:45;;;;;;;11.18;5.57;;;14.30;99.90;;;;;;5053298;28;20021;-43
2023/08/30 05:19:11;;;;;;;11.13;5.65;;;14.30;99.90;;;;;;5053057;28;20093;-45
2023/08/30 05:21:37;;;;;;;10.43;5.63;;;14.30;99.90;;;;;;5052998;28;20506;-41
2023/08/30 05:24:03;;;;;;;11.48;5.13;;;14.30;99.90;;;;;;5052226;28;20393;-41
2023/08/30 05:26:29;;;;;;;7.28;4.57;;;14.30;99.90;;;;;;5052852;28;20041;-42
2023/08/30 05:28:54;;;;;;;11.82;5.82;;;14.30;99.90;;;;;;5051684;28;20086;-40
2023/08/30 05:31:20;;;;;;;8.63;5.43;;;14.30;99.90;;;;;;5052937;28;20025;-41
2023/08/30 05:33:45;;;;;;;8.45;5.63;;;14.40;99.90;;;;;;5052140;28;20462;-46
2023/08/30 05:36:11;;;;;;;11.07;5.47;;;14.40;99.90;;;;;;5052880;28;20029;-43
2023/08/30 05:38:37;;;;;;;8.23;5.03;;;14.40;99.90;;;;;;5052790;28;20029;-46
2023/08/30 05:41:02;;;;;;;6.15;4.13;;;14.40;99.90;;;;;;5052835;28;20032;-53
2023/08/30 05:43:28;;;;;;;15.70;5.75;;;14.40;99.90;;;;;;5051852;28;20143;-52
2023/08/30 05:45:54;;;;;;;11.55;5.47;;;14.50;99.90;;;;;;5052434;28;20017;-51
2023/08/30 05:48:19;;;;;;;19.58;5.53;;;14.50;99.90;;;;;;5050714;28;20078;-51
2023/08/30 05:50:45;;;;;;;6.25;4.85;;;14.60;99.90;;;;;;5050227;28;20024;-53
2023/08/30 05:53:11;;;;;;;8.23;4.75;;;14.70;99.90;;;;;;5052774;28;20036;-52
2023/08/30 05:55:37;;;;;;;8.80;4.60;;;14.70;99.90;;;;;;5052538;28;20021;-52
2023/08/30 05:58:03;;;;;;;10.80;5.47;;;14.80;99.90;;;;;;5051584;28;20021;-52
2023/08/30 06:00:28;;;;;;;7.00;4.15;;;14.70;99.90;;;;;;5052610;28;20029;-52
2023/08/30 06:02:54;;;;;;;14.55;5.97;;;14.70;99.90;;;;;;5052184;28;20389;-50
2023/08/30 06:05:20;;;;;;;7.13;4.38;;;14.70;99.90;;;;;;5051731;28;20036;-45
2023/08/30 06:07:45;;;;;;;8.65;5.22;;;14.70;99.90;;;;;;5052094;28;20029;-47
2023/08/30 06:10:12;;;;;;;6.38;4.40;;;14.70;99.90;;;;;;5051478;28;20099;-44
2023/08/30 06:12:37;;;;;;;13.43;5.32;;;14.70;99.90;;;;;;5051062;28;20060;-41
2023/08/30 06:15:04;;;;;;;9.10;4.85;;;14.60;99.90;;;;;;5052435;28;20497;-43
2023/08/30 06:17:29;;;;;;;6.95;4.78;;;14.60;99.90;;;;;;5052706;28;20032;-42
2023/08/30 06:19:55;;;;;;;11.32;5.18;;;14.50;99.90;;;;;;5052911;28;20033;-47
2023/08/30 06:22:21;;;;;;;12.43;5.38;;;14.50;99.90;;;;;;5052817;28;20364;-51
2023/08/30 06:25:06;;;;;;;12.38;5.80;;;14.50;99.90;;;;;;5055628;28;20045;-54
2023/08/30 06:27:32;;;;;;;6.45;4.57;;;14.40;99.90;;;;;;5056424;28;20037;-54
2023/08/30 06:29:58;;;;;;;10.10;5.35;;;14.30;99.90;;;;;;5056135;28;20102;-55
2023/08/30 06:32:23;;;;;;;10.23;6.18;;;14.20;99.90;;;;;;5056256;28;20033;-53
2023/08/30 06:34:49;;;;;;;9.65;5.25;;;14.20;99.90;;;;;;5055335;28;20025;-54
2023/08/30 06:37:15;;;;;;;10.63;5.55;;;14.10;99.90;;;;;;5056114;28;20414;-53
2023/08/30 06:39:40;;;;;;;9.73;5.95;;;14.10;99.90;;;;;;5038360;28;20033;-53
2023/08/30 06:42:06;;;;;;;10.98;5.47;;;14.10;99.90;;;;;;5055809;28;20028;-45
2023/08/30 06:44:32;;;;;;;13.63;5.78;;;14.00;99.90;;;;;;5056260;28;20509;-40
2023/08/30 06:46:57;;;;;;;13.05;5.63;;;14.00;99.90;;;;;;5055943;28;20033;-38
2023/08/30 06:49:24;;;;;;;12.98;5.50;;;14.10;99.90;;;;;;5056075;28;20436;-39
2023/08/30 06:51:49;;;;;;;10.95;5.20;;;14.00;99.90;;;;;;5055103;28;20036;-42
2023/08/30 06:54:15;;;;;;;9.45;5.38;;;14.00;99.90;;;;;;5055769;28;20036;-41
2023/08/30 06:56:41;;;;;;;10.63;5.15;;;14.10;99.90;;;;;;5055641;28;20492;-39
2023/08/30 06:59:06;;;;;;;9.20;4.60;;;14.10;99.90;;;;;;5037663;28;20021;-39
2023/08/30 07:01:32;;;;;;;10.38;5.82;;;14.10;99.90;;;;;;5055346;28;20079;-41
2023/08/30 07:03:57;;;;;;;9.02;6.10;;;14.10;99.90;;;;;;5055245;28;20017;-40
2023/08/30 07:06:24;;;;;;;8.13;4.97;;;14.10;99.90;;;;;;5048087;28;20029;-41
2023/08/30 07:08:49;;;;;;;11.98;6.22;;;14.10;99.90;;;;;;5047991;28;20056;-39
2023/08/30 07:11:15;;;;;;;12.05;5.15;;;14.10;99.90;;;;;;5055769;28;20516;-41
2023/08/30 07:13:41;;;;;;;6.03;4.55;;;14.10;99.90;;;;;;5055402;28;20033;-42
2023/08/30 07:16:09;;;;;;;7.53;4.72;;;14.20;99.90;;;;;;5055300;28;20024;-45
2023/08/30 07:18:35;;;;;;;9.98;5.82;;;14.20;99.90;;;;;;5055314;28;20025;-41
2023/08/30 07:21:00;;;;;;;12.82;5.82;;;14.20;99.90;;;;;;5052850;28;20165;-42
2023/08/30 07:23:26;;;;;;;8.95;5.22;;;14.20;99.90;;;;;;5044747;28;20194;-39
2023/08/30 07:25:52;;;;;;;8.70;5.13;;;14.30;99.90;;;;;;5040873;28;20127;-40
2023/08/30 07:28:18;;;;;;;7.68;4.13;;;14.30;99.90;;;;;;5053220;28;20080;-40
2023/08/30 07:30:43;;;;;;;6.70;4.85;;;14.30;99.90;;;;;;5054395;28;20155;-54
2023/08/30 07:33:10;;;;;;;9.70;4.90;;;14.30;99.90;;;;;;5067945;28;20489;-55
2023/08/30 07:35:35;;;;;;;7.25;4.75;;;14.30;99.90;;;;;;5074903;28;20024;-55
2023/08/30 07:38:01;;;;;;;9.93;4.97;;;14.30;99.90;;;;;;5057030;28;20381;-50
2023/08/30 07:40:28;;;;;;;6.72;4.80;;;14.30;99.90;;;;;;5038010;28;20025;-54
2023/08/30 07:42:54;;;;;;;8.10;5.25;;;14.40;99.90;;;;;;5041231;28;20032;-54
2023/08/30 07:45:20;;;;;;;7.45;4.35;;;14.30;99.90;;;;;;5043451;28;20029;-41
2023/08/30 07:47:45;;;;;;;4.25;3.42;;;14.30;99.90;;;;;;5049088;28;20463;-38
2023/08/30 07:50:11;;;;;;;5.45;4.03;;;14.30;99.90;;;;;;5054357;28;20485;-42
2023/08/30 07:52:36;;;;;;;7.55;3.78;;;14.30;99.90;;;;;;5055004;28;20033;-39
2023/08/30 07:55:02;;;;;;;6.25;4.43;;;14.20;99.90;;;;;;5036797;28;20025;-39
2023/08/30 07:57:28;;;;;;;11.40;4.43;;;14.20;99.90;;;;;;5054497;28;20039;-43
2023/08/30 07:59:54;;;;;;;5.40;3.88;;;14.20;99.90;;;;;;5053494;28;20559;-41
2023/08/30 08:02:19;;;;;;;7.93;3.75;;;14.10;99.90;;;;;;5049718;28;20032;-41
2023/08/30 08:04:45;;;;;;;6.45;4.03;;;14.20;99.90;;;;;;5048434;28;20030;-39
2023/08/30 08:07:10;;;;;;;6.93;3.75;;;14.20;99.90;;;;;;5051034;28;20512;-38
2023/08/30 08:09:37;;;;;;;6.07;3.67;;;14.20;99.90;;;;;;5051965;28;20025;-40
2023/08/30 08:12:03;;;;;;;5.70;3.53;;;14.20;99.90;;;;;;5052355;28;20175;-40
2023/08/30 08:14:29;;;;;;;5.03;3.42;;;14.20;99.90;;;;;;5052429;28;20021;-56
2023/08/30 08:16:54;;;;;;;5.50;3.60;;;14.10;99.90;;;;;;5051812;28;20551;-52
2023/08/30 08:19:21;;;;;;;6.28;3.55;;;14.10;99.90;;;;;;5051084;28;20027;-54
2023/08/30 08:21:47;;;;;;;5.63;3.70;;;14.20;99.90;;;;;;5045615;28;20051;-55
2023/08/30 08:24:13;;;;;;;6.50;4.28;;;14.10;99.90;;;;;;5056551;28;20104;-54
2023/08/30 08:26:38;;;;;;;5.43;3.63;;;14.20;99.90;;;;;;5051318;28;20063;-54
2023/08/30 08:29:04;;;;;;;6.60;4.18;;;14.20;99.90;;;;;;5052856;28;20061;-54
2023/08/30 08:31:30;;;;;;;4.03;3.65;;;14.20;99.90;;;;;;5050611;28;20041;-54
2023/08/30 08:34:10;;;;;;;5.65;3.65;;;14.20;99.90;;;;;;5054186;28;20025;-52
2023/08/30 08:36:38;;;;;;;6.63;4.47;;;14.20;99.90;;;;;;5053208;28;20478;-54
2023/08/30 08:39:04;;;;;;;4.22;3.67;;;14.30;99.90;;;;;;5052619;28;20057;-53
2023/08/30 08:41:39;;;;;;;5.03;3.20;;;14.30;99.90;;;;;;5050134;28;20090;-44
2023/08/30 08:44:07;;;;;;;7.63;4.13;;;14.40;99.90;;;;;;5050166;28;20031;-44
2023/08/30 08:46:35;;;;;;;5.65;3.67;;;14.40;99.90;;;;;;5051356;28;20029;-42
2023/08/30 08:49:08;;;;;;;6.40;3.60;;;14.40;99.90;;;;;;5053406;28;20036;-45
2023/08/30 08:51:35;;;;;;;4.05;3.60;;;14.40;99.90;;;;;;5052829;28;20021;-41
2023/08/30 08:54:04;;;;;;;5.88;4.40;;;14.50;99.90;;;;;;5052396;28;20056;-42
2023/08/30 08:56:32;;;;;;;8.00;4.57;;;14.50;99.90;;;;;;5051922;28;20622;-39
2023/08/30 08:58:58;;;;;;;8.35;4.40;;;14.50;99.90;;;;;;5053364;28;20036;-40
2023/08/30 09:01:25;;;;;;;6.72;4.03;;;14.50;99.90;;;;;;5053223;28;20029;-40
2023/08/30 09:03:51;;;;;;;6.30;4.40;;;14.50;99.90;;;;;;5052353;28;20381;-43
2023/08/30 09:06:18;;;;;;;4.88;3.97;;;14.60;99.90;;;;;;5051950;28;20029;-42
2023/08/30 09:08:43;;;;;;;8.77;4.40;;;14.60;99.90;;;;;;5053243;28;20040;-54
2023/08/30 09:11:09;;;;;;;6.32;4.22;;;14.70;99.90;;;;;;5039476;28;20022;-54
2023/08/30 09:13:35;;;;;;;5.55;4.07;;;14.70;99.90;;;;;;5052734;28;20029;-54
2023/08/30 09:16:02;;;;;;;7.75;4.78;;;14.70;99.90;;;;;;5051298;28;20021;-55
2023/08/30 09:18:28;;;;;;;6.80;4.63;;;14.80;99.90;;;;;;5051645;28;20029;-53
2023/08/30 09:21:05;;;;;;;6.47;4.70;;;14.90;99.90;;;;;;5049085;28;20032;-42
2023/08/30 09:23:31;;;;;;;6.50;4.70;;;15.00;99.90;;;;;;5048728;28;20115;-41
2023/08/30 09:25:57;;;;;;;8.25;4.82;;;15.00;99.90;;;;;;5051957;28;20480;-41
2023/08/30 09:28:22;;;;;;;7.38;5.40;;;15.10;99.90;;;;;;5050204;28;20033;-41
2023/08/30 09:30:52;;;;;;;6.95;4.65;;;15.20;99.90;;;;;;5052709;28;20120;-42
2023/08/30 09:33:30;;;;;;;7.25;5.25;;;15.30;99.90;;;;;;5052929;28;20517;-39
2023/08/30 09:35:55;;;;;;;9.05;6.15;;;15.40;99.90;;;;;;5051413;28;20051;-42
2023/08/30 09:38:21;;;;;;;6.45;4.63;;;15.50;99.90;;;;;;5050462;28;20125;-42
2023/08/30 09:40:47;;;;;;;8.55;5.70;;;15.50;99.90;;;;;;5052556;28;20036;-40
2023/08/30 09:43:14;;;;;;;10.50;5.63;;;15.50;99.90;;;;;;5050779;28;20040;-38
2023/08/30 09:45:41;;;;;;;10.50;6.18;;;15.60;99.90;;;;;;5048530;28;20033;-43
2023/08/30 09:48:07;;;;;;;7.88;5.43;;;15.70;99.90;;;;;;5051396;28;20413;-37
2023/08/30 09:50:36;;;;;;;9.40;6.57;;;15.80;99.90;;;;;;5050071;28;20570;-38
2023/08/30 09:53:12;;;;;;;14.00;6.82;;;16.00;99.90;;;;;;5046794;28;20051;-53
2023/08/30 09:55:39;;;;;;;7.20;6.07;;;16.20;99.90;;;;;;5047538;28;20071;-52
2023/08/30 09:58:05;;;;;;;9.80;6.55;;;16.40;99.90;;;;;;5051319;28;20481;-45
2023/08/30 10:00:33;;;;;;;8.32;6.32;;;16.50;99.90;;;;;;5050994;28;20478;-54
2023/08/30 10:02:59;;;;;;;14.77;6.82;;;16.70;99.90;;;;;;5052467;28;20105;-53
2023/08/30 10:05:26;;;;;;;14.90;7.20;;;16.80;99.90;;;;;;5051237;28;20032;-46
2023/08/30 10:07:53;;;;;;;11.68;7.25;;;16.90;99.90;;;;;;5051095;28;20029;-52
2023/08/30 10:10:19;;;;;;;8.53;5.27;;;16.90;99.90;;;;;;5049483;28;20025;-54
2023/08/30 10:12:47;;;;;;;6.32;3.67;;;16.80;99.90;;;;;;5052524;28;20033;-51
2023/08/30 10:15:13;;;;;;;5.72;4.18;;;16.80;99.90;;;;;;5051302;28;20017;-52
2023/08/30 10:17:44;;;;;;;4.57;4.18;;;16.80;99.90;;;;;;5050615;28;20611;-53
2023/08/30 10:20:12;;;;;;;7.82;4.32;;;17.00;99.90;;;;;;5051564;28;20061;-52
2023/08/30 10:22:39;;;;;;;3.47;3.17;;;17.00;99.90;;;;;;5049803;28;20037;-52
2023/08/30 10:25:10;;;;;;;;;;;17.10;99.90;;;;;;5046197;28;20397;-48
2023/08/30 10:27:38;;;;;;;3.50;2.65;;;17.20;99.90;;;;;;5050742;28;19912;-53
2023/08/30 10:30:07;;;;;;;2.35;2.15;;;17.30;99.90;;;;;;5047545;28;20020;-53
2023/08/30 10:32:38;;;;;;;3.25;2.10;;;17.50;99.90;;;;;;5050332;28;20025;-53
2023/08/30 10:35:04;;;;;;;5.93;2.00;;;17.60;99.90;;;;;;5051987;28;20071;-52
2023/08/30 10:37:30;;;;;;;10.70;2.17;;;17.60;99.90;;;;;;5051760;28;20021;-54
2023/08/30 10:40:05;;;;;;;4.10;1.92;;;17.60;99.90;;;;;;5050837;28;20039;-51
2023/08/30 10:42:32;;;;;;;4.20;2.42;;;17.50;99.90;;;;;;5051348;28;20032;-48
2023/08/30 10:45:02;;;;;;;5.38;1.90;;;17.40;99.90;;;;;;5052168;28;20033;-52
2023/08/30 10:47:29;;;;;;;7.00;2.17;;;17.30;99.90;;;;;;5052170;28;20086;-52
2023/08/30 10:49:59;;;;;;;3.63;1.63;;;17.20;99.90;;;;;;5051923;28;20469;-53
2023/08/30 10:52:27;;;;;;;6.25;1.95;;;17.00;99.90;;;;;;5051444;28;20032;-51
2023/08/30 10:55:04;;;;;;;8.43;1.90;;;16.90;99.90;;;;;;5050796;28;20021;-51
2023/08/30 10:57:29;;;;;;;5.55;1.98;;;16.90;99.90;;;;;;5051901;28;20082;-50
2023/08/30 11:00:10;;;;;;;10.57;1.77;;;17.00;99.90;;;;;;5049561;28;20473;-53
2023/08/30 11:02:37;;;;;;;5.22;1.90;;;17.00;99.90;;;;;;5050370;28;20489;-53
2023/08/30 11:05:07;;;;;;;2.83;2.03;;;17.00;99.90;;;;;;5047623;28;20488;-51
2023/08/30 11:07:33;;;;;;;5.38;2.25;;;17.00;99.90;;;;;;5050627;28;20543;-52
2023/08/30 11:09:59;;;;;;;3.35;1.75;;;17.10;99.90;;;;;;5052690;28;20052;-53
2023/08/30 11:12:29;;;;;;;3.25;1.63;;;17.00;99.90;;;;;;5053971;28;20522;-52
2023/08/30 11:14:55;;;;;;;11.07;1.83;;;16.90;99.90;;;;;;5055674;28;20358;-52
2023/08/30 11:17:21;;;;;;;7.45;1.90;;;17.20;99.90;;;;;;5053259;28;20398;-52
2023/08/30 11:19:51;;;;;;;5.28;2.22;;;17.40;99.90;;;;;;5055405;28;20035;-50
2023/08/30 11:22:18;;;;;;;3.83;1.65;;;17.60;99.90;;;;;;5055599;28;20025;-53
2023/08/30 11:24:43;;;;;;;5.88;1.75;;;17.60;99.90;;;;;;5050745;28;20386;-52
2023/08/30 11:27:09;;;;;;;7.47;1.75;;;17.60;99.90;;;;;;5047706;28;20049;-53
2023/08/30 11:29:35;;;;;;;13.05;2.08;;;17.50;99.90;;;;;;5052302;28;20028;-53
2023/08/30 11:32:01;;;;;;;5.07;1.70;;;17.50;99.90;;;;;;5036819;28;20483;-53
2023/08/30 11:34:27;;;;;;;7.40;2.03;;;17.40;99.90;;;;;;5052182;28;20116;-51
2023/08/30 11:36:53;;;;;;;2.78;1.38;;;17.50;99.90;;;;;;5055060;28;20474;-53
2023/08/30 11:39:20;;;;;;;9.57;2.35;;;17.70;99.90;;;;;;5053967;28;20444;-54
2023/08/30 11:41:46;;;;;;;7.95;2.10;;;17.90;99.90;;;;;;5054225;28;20047;-54
2023/08/30 11:44:12;;;;;;;5.68;1.85;;;18.10;99.90;;;;;;5054927;28;20037;-52
2023/08/30 11:46:38;;;;;;;6.63;1.63;;;18.10;99.90;;;;;;5052188;28;20543;-52
2023/08/30 11:49:04;;;;;;;8.57;1.75;;;18.00;99.90;;;;;;5040145;28;20018;-52
2023/08/30 11:51:31;;;;;;;4.25;1.80;;;17.90;99.90;;;;;;5044746;28;20033;-52
2023/08/30 11:53:57;;;;;;;5.82;1.40;;;17.80;99.90;;;;;;5053649;28;20036;-49
2023/08/30 11:56:23;;;;;;;3.85;1.35;;;18.00;99.90;;;;;;5053520;28;20083;-55
2023/08/30 11:58:51;;;;;;;10.47;1.73;;;18.30;99.90;;;;;;5034852;28;20025;-53
2023/08/30 12:01:18;;;;;;;9.93;1.45;;;18.60;99.90;;;;;;5052233;28;20017;-54
2023/08/30 12:03:50;;;;;;;6.72;1.80;;;18.80;99.90;;;;;;5053518;28;20033;-53
2023/08/30 12:06:16;;;;;;;7.47;1.95;;;19.00;99.90;;;;;;5054823;28;20060;-53
2023/08/30 12:08:42;;;;;;;7.55;1.45;;;19.00;99.90;;;;;;5051406;28;20044;-51
2023/08/30 12:11:20;;;;;;;7.15;2.03;;;18.80;99.90;;;;;;5050707;28;20453;-54
2023/08/30 12:13:47;;;;;;;3.38;1.27;;;18.60;99.90;;;;;;5052692;28;20021;-53
2023/08/30 12:16:20;;;;;;;4.45;1.45;;;18.60;99.90;;;;;;5052962;28;20021;-52
2023/08/30 12:18:46;;;;;;;7.40;1.52;;;18.80;99.90;;;;;;5050767;28;20018;-54
2023/08/30 12:21:13;;;;;;;4.30;1.38;;;19.10;99.90;;;;;;5052928;28;20397;-53
2023/08/30 12:23:39;;;;;;;5.82;1.65;;;19.40;99.90;;;;;;5054073;28;20431;-54
2023/08/30 12:26:09;;;;;;;2.78;1.00;;;19.60;99.90;;;;;;5048213;28;20033;-48
2023/08/30 12:28:40;;;;;;;2.25;0.98;;;19.50;99.90;;;;;;5054273;28;20086;-53
2023/08/30 12:31:09;;;;;;;6.78;1.40;;;19.30;99.90;;;;;;5052967;28;20025;-53
2023/08/30 12:33:37;;;;;;;2.33;0.77;;;19.00;99.90;;;;;;5053856;28;20094;-54
2023/08/30 12:36:03;;;;;;;1.70;0.90;;;18.90;99.90;;;;;;5053858;28;20436;-49
2023/08/30 12:38:29;;;;;;;5.70;1.33;;;19.20;99.90;;;;;;5052722;28;20039;-54
2023/08/30 12:40:56;;;;;;;2.83;1.23;;;19.60;99.90;;;;;;5052716;28;20028;-54
2023/08/30 12:43:22;;;;;;;3.80;1.20;;;19.70;99.90;;;;;;5053352;28;20550;-52